Time;durP1;ratioP1;P1;durP2;ratioP2;P2;SDS_P1;SDS_P2;PMS_P1;PMS_P2;Temp;Humidity;BMP_temperature;BMP_pressure;BME280_temperature;BME280_humidity;BME280_pressure;Samples;Min_cycle;Max_cycle;Signal;HPM_P1;HPM_P2
2023/08/29 00:00:12;;;;;;;4.50;4.10;;;;;;;14.81;73.73;97347.84;5034196;28;20565;-71
2023/08/29 00:02:41;;;;;;;4.60;4.20;;;;;;;14.73;74.00;97359.94;5028282;28;20462;-71
2023/08/29 00:05:09;;;;;;;5.13;4.10;;;;;;;14.72;74.07;97363.75;5030473;28;20496;-71
2023/08/29 00:07:36;;;;;;;4.10;3.80;;;;;;;14.70;74.20;97357.72;5033770;28;20457;-72
2023/08/29 00:10:04;;;;;;;4.00;3.70;;;;;;;14.74;74.13;97359.69;5034477;28;20977;-71
2023/08/29 00:12:32;;;;;;;3.90;3.60;;;;;;;14.72;74.35;97350.94;5038469;28;20448;-71
2023/08/29 00:14:59;;;;;;;3.60;3.37;;;;;;;14.73;74.21;97344.44;5034584;28;20492;-71
2023/08/29 00:17:26;;;;;;;3.80;3.50;;;;;;;14.90;73.55;97346.34;5037439;28;20665;-72
2023/08/29 00:19:53;;;;;;;5.03;4.40;;;;;;;14.69;74.14;97356.88;5034578;28;20582;-72
2023/08/29 00:22:20;;;;;;;5.40;4.03;;;;;;;14.69;74.07;97351.44;5032387;28;21055;-72
2023/08/29 00:24:47;;;;;;;4.97;4.47;;;;;;;14.82;73.83;97349.47;5034332;28;20485;-71
2023/08/29 00:27:15;;;;;;;4.33;3.97;;;;;;;14.77;73.97;97342.03;5033661;28;20456;-71
2023/08/29 00:29:42;;;;;;;5.03;4.53;;;;;;;14.75;74.05;97344.19;5036779;28;20549;-71
2023/08/29 00:32:09;;;;;;;5.30;3.60;;;;;;;14.78;74.12;97344.53;5034339;28;20451;-71
2023/08/29 00:34:36;;;;;;;3.60;3.30;;;;;;;14.75;74.33;97347.75;5041616;28;20509;-71
2023/08/29 00:37:03;;;;;;;5.00;4.50;;;;;;;14.88;73.85;97348.50;5033368;28;20518;-71
2023/08/29 00:39:29;;;;;;;4.83;4.43;;;;;;;14.92;73.54;97352.38;5028893;28;20556;-72
2023/08/29 00:41:56;;;;;;;4.33;4.03;;;;;;;14.82;73.98;97355.75;5031933;28;20447;-71
2023/08/29 00:44:24;;;;;;;3.80;3.50;;;;;;;14.88;73.84;97353.94;5037418;28;20475;-71
2023/08/29 00:46:52;;;;;;;3.03;2.83;;;;;;;14.96;73.66;97361.69;5044261;28;20466;-71
2023/08/29 00:49:22;;;;;;;3.73;2.90;;;;;;;14.88;73.87;97360.22;5036210;28;21168;-71
2023/08/29 00:51:49;;;;;;;2.93;2.73;;;;;;;14.98;73.66;97363.09;5039911;28;20544;-71
2023/08/29 00:54:16;;;;;;;3.13;2.93;;;;;;;14.87;74.01;97364.03;5032099;28;20564;-72
2023/08/29 00:56:44;;;;;;;2.80;2.60;;;;;;;14.82;74.28;97368.56;5036874;28;20538;-72
2023/08/29 00:59:11;;;;;;;5.47;2.77;;;;;;;14.79;74.42;97362.53;5039790;28;21082;-71
2023/08/29 01:01:39;;;;;;;3.00;2.80;;;;;;;14.77;74.51;97359.22;5033134;28;20508;-71
2023/08/29 01:04:06;;;;;;;3.37;3.17;;;;;;;14.70;74.74;97363.97;5033172;28;20489;-73
2023/08/29 01:06:33;;;;;;;3.03;2.83;;;;;;;14.78;74.45;97360.88;5036795;28;20473;-71
2023/08/29 01:09:00;;;;;;;2.70;2.60;;;;;;;14.81;74.17;97353.28;5034602;28;20505;-72
2023/08/29 01:11:31;;;;;;;3.50;3.30;;;;;;;14.92;74.04;97360.56;5030922;28;20528;-72
2023/08/29 01:14:01;;;;;;;4.03;3.73;;;;;;;14.86;74.02;97354.19;5034480;28;20789;-71
2023/08/29 01:16:35;;;;;;;4.70;4.30;;;;;;;14.82;74.10;97344.03;5033104;28;20532;-71
2023/08/29 01:19:05;;;;;;;5.50;4.60;;;;;;;14.72;74.39;97348.22;5039917;28;20527;-72
2023/08/29 01:21:37;;;;;;;6.17;4.80;;;;;;;14.75;74.55;97349.63;5037086;28;21214;-71
2023/08/29 01:24:08;;;;;;;5.63;4.67;;;;;;;14.81;74.11;97353.28;5032236;28;20577;-71
2023/08/29 01:26:37;;;;;;;4.17;3.87;;;;;;;14.81;74.23;97348.66;5034525;28;20533;-71
2023/08/29 01:29:04;;;;;;;4.40;4.10;;;;;;;14.73;74.57;97357.22;5035444;28;20491;-72
2023/08/29 01:31:33;;;;;;;4.10;3.80;;;;;;;14.83;74.65;97351.13;5034086;28;20454;-72
2023/08/29 01:33:59;;;;;;;3.53;3.27;;;;;;;14.67;75.12;97353.56;5035045;28;20476;-72
2023/08/29 01:36:27;;;;;;;4.03;3.73;;;;;;;14.80;74.77;97360.63;5033548;28;20467;-71
2023/08/29 01:38:54;;;;;;;3.90;3.60;;;;;;;14.88;74.60;97357.50;5044347;28;20505;-71
2023/08/29 01:41:21;;;;;;;3.80;3.50;;;;;;;15.02;74.17;97360.72;5039886;28;20460;-71
2023/08/29 01:43:49;;;;;;;3.60;3.30;;;;;;;14.90;74.25;97362.72;5029590;28;20485;-72
2023/08/29 01:46:15;;;;;;;3.80;3.50;;;;;;;14.92;74.46;97355.13;5030155;28;20515;-71
2023/08/29 01:48:43;;;;;;;3.67;3.10;;;;;;;14.85;74.80;97354.44;5029888;28;20497;-71
2023/08/29 01:51:09;;;;;;;3.60;3.40;;;;;;;14.81;75.21;97351.38;5032926;28;20543;-71
2023/08/29 01:53:38;;;;;;;3.67;3.47;;;;;;;14.74;75.63;97370.59;5040068;28;20584;-71
2023/08/29 01:56:06;;;;;;;3.50;3.20;;;;;;;14.82;75.31;97349.47;5031646;28;20451;-71
2023/08/29 01:58:34;;;;;;;4.17;3.60;;;;;;;14.80;75.00;97352.44;5037814;28;20525;-71
2023/08/29 02:01:02;;;;;;;3.93;3.73;;;;;;;14.88;74.66;97354.78;5032027;28;20500;-71
2023/08/29 02:03:29;;;;;;;4.43;4.13;;;;;;;14.91;74.39;97342.56;5040021;28;20487;-72
2023/08/29 02:05:56;;;;;;;4.90;4.50;;;;;;;14.85;74.84;97338.91;5042347;28;20915;-71
2023/08/29 02:08:23;;;;;;;4.37;4.07;;;;;;;14.79;74.82;97346.19;5030995;28;20796;-72
2023/08/29 02:10:50;;;;;;;4.47;4.17;;;;;;;14.82;74.69;97341.31;5031224;28;20461;-71
2023/08/29 02:13:17;;;;;;;5.90;4.00;;;;;;;14.92;74.47;97344.22;5027676;28;20481;-71
2023/08/29 02:15:43;;;;;;;4.10;3.90;;;;;;;14.70;75.41;97334.03;5045192;28;20498;-72
2023/08/29 02:18:11;;;;;;;4.73;3.50;;;;;;;14.76;75.13;97335.78;5038159;28;20574;-71
2023/08/29 02:20:38;;;;;;;3.57;3.27;;;;;;;14.82;75.11;97335.84;5035008;28;20775;-72
2023/08/29 02:23:05;;;;;;;3.43;3.13;;;;;;;14.78;75.00;97325.44;5046298;28;20506;-72
2023/08/29 02:25:32;;;;;;;3.70;3.40;;;;;;;14.68;75.57;97328.00;5046672;28;20478;-71
2023/08/29 02:27:59;;;;;;;3.47;3.23;;;;;;;14.76;75.50;97324.03;5030878;28;20997;-71
2023/08/29 02:30:25;;;;;;;4.03;3.73;;;;;;;14.67;75.40;97323.63;5027432;28;20983;-71
2023/08/29 02:32:52;;;;;;;3.87;3.53;;;;;;;14.72;75.56;97318.25;5031675;28;20482;-71
2023/08/29 02:35:20;;;;;;;4.30;4.00;;;;;;;14.76;75.62;97313.97;5041104;28;20471;-72
2023/08/29 02:37:47;;;;;;;4.00;3.70;;;;;;;14.81;75.25;97320.59;5030966;28;20452;-72
2023/08/29 02:40:14;;;;;;;3.60;3.40;;;;;;;14.70;75.85;97316.84;5035628;28;20531;-72
2023/08/29 02:42:41;;;;;;;3.53;3.33;;;;;;;14.82;75.39;97327.69;5042526;28;20569;-72
2023/08/29 02:45:08;;;;;;;3.83;3.53;;;;;;;14.86;75.25;97323.41;5033010;28;20503;-71
2023/08/29 02:47:35;;;;;;;3.13;2.93;;;;;;;14.85;75.02;97316.31;5033128;28;20453;-71
2023/08/29 02:50:03;;;;;;;3.90;3.60;;;;;;;14.92;75.15;97323.25;5029471;28;21034;-71
2023/08/29 02:52:31;;;;;;;3.50;3.30;;;;;;;14.79;75.58;97316.22;5041170;28;20525;-72
2023/08/29 02:54:58;;;;;;;5.10;3.47;;;;;;;14.82;75.54;97305.91;5040143;28;20707;-73
2023/08/29 02:57:25;;;;;;;4.30;4.00;;;;;;;14.65;76.26;97306.69;5030458;28;20459;-71
2023/08/29 02:59:52;;;;;;;4.03;3.63;;;;;;;14.84;75.87;97310.03;5033565;28;20499;-71
2023/08/29 03:02:18;;;;;;;4.43;4.03;;;;;;;14.79;76.01;97308.03;5029799;28;20525;-71
2023/08/29 03:04:45;;;;;;;4.23;3.93;;;;;;;14.84;75.74;97310.03;5033664;28;20498;-72
2023/08/29 03:07:12;;;;;;;4.90;4.50;;;;;;;14.84;75.33;97303.75;5034997;28;20463;-72
2023/08/29 03:09:40;;;;;;;4.80;4.37;;;;;;;14.83;75.39;97313.81;5032315;28;20537;-72
2023/08/29 03:12:07;;;;;;;4.33;4.03;;;;;;;14.78;75.73;97322.72;5030507;28;20467;-71
2023/08/29 03:14:34;;;;;;;4.03;3.70;;;;;;;14.77;75.80;97321.06;5031495;28;20487;-71
2023/08/29 03:17:01;;;;;;;4.13;3.83;;;;;;;14.79;75.68;97313.47;5028278;28;20487;-71
2023/08/29 03:19:28;;;;;;;4.10;3.80;;;;;;;14.84;75.37;97301.03;5032310;28;20474;-71
2023/08/29 03:21:54;;;;;;;3.90;3.60;;;;;;;14.72;75.84;97298.38;5044846;28;20486;-72
2023/08/29 03:24:21;;;;;;;4.07;3.67;;;;;;;14.66;76.44;97302.91;5040850;28;20471;-71
2023/08/29 03:26:50;;;;;;;3.90;3.60;;;;;;;14.76;76.12;97308.53;5030241;28;20464;-71
2023/08/29 03:29:17;;;;;;;5.10;4.57;;;;;;;14.79;76.07;97293.59;5043201;28;20483;-71
2023/08/29 03:31:43;;;;;;;4.13;3.73;;;;;;;14.76;76.47;97303.06;5034735;28;20459;-71
2023/08/29 03:34:10;;;;;;;4.60;4.20;;;;;;;14.83;76.18;97299.38;5037155;28;20571;-71
2023/08/29 03:36:38;;;;;;;4.97;4.57;;;;;;;14.78;76.63;97292.75;5040865;28;20637;-71
2023/08/29 03:39:05;;;;;;;4.50;4.20;;;;;;;14.72;77.12;97290.19;5040417;28;20583;-71
2023/08/29 03:41:32;;;;;;;5.60;4.60;;;;;;;14.63;77.63;97292.50;5030926;28;20542;-71
2023/08/29 03:44:00;;;;;;;5.03;4.63;;;;;;;14.63;77.89;97292.50;5040848;28;20484;-70
2023/08/29 03:46:27;;;;;;;6.00;5.63;;;;;;;14.46;78.93;97286.22;5032556;28;20469;-71
2023/08/29 03:48:54;;;;;;;5.53;5.10;;;;;;;14.59;78.52;97290.53;5031222;28;20459;-71
2023/08/29 03:51:21;;;;;;;6.10;5.70;;;;;;;14.65;78.11;97284.91;5031102;28;20544;-72
2023/08/29 03:53:48;;;;;;;5.47;5.17;;;;;;;14.67;78.62;97288.22;5038238;28;20465;-71
2023/08/29 03:56:16;;;;;;;6.73;6.23;;;;;;;14.46;79.36;97286.22;5042263;28;20536;-71
2023/08/29 03:58:42;;;;;;;7.40;6.70;;;;;;;14.34;80.39;97291.69;5037949;28;20962;-72
2023/08/29 04:01:11;;;;;;;7.90;7.40;;;;;;;14.22;81.35;97281.94;5029794;28;20467;-72
2023/08/29 04:03:38;;;;;;;9.10;8.43;;;;;;;14.25;81.12;97284.19;5033795;28;20485;-71
2023/08/29 04:06:05;;;;;;;8.23;7.63;;;;;;;14.23;81.53;97280.88;5029721;28;20451;-71
2023/08/29 04:08:32;;;;;;;9.50;8.80;;;;;;;14.39;80.88;97286.34;5032243;28;20457;-71
2023/08/29 04:10:59;;;;;;;9.37;8.60;;;;;;;14.28;81.47;97289.97;5033607;28;20479;-71
2023/08/29 04:13:26;;;;;;;9.10;8.47;;;;;;;14.29;81.80;97288.06;5034325;28;20480;-71
2023/08/29 04:15:53;;;;;;;8.93;8.27;;;;;;;14.32;81.91;97293.81;5035753;28;21028;-71
2023/08/29 04:18:21;;;;;;;11.47;10.57;;;;;;;14.39;81.69;97289.06;5030147;28;20478;-71
2023/08/29 04:20:48;;;;;;;11.67;10.70;;;;;;;14.41;81.88;97283.41;5028327;28;20975;-72
2023/08/29 04:23:15;;;;;;;10.33;9.53;;;;;;;14.41;81.80;97288.84;5031887;28;20478;-72
2023/08/29 04:25:42;;;;;;;10.53;9.83;;;;;;;14.43;82.01;97286.69;5040552;28;20448;-71
2023/08/29 04:28:09;;;;;;;10.43;9.63;;;;;;;14.24;82.66;97290.69;5039492;28;20461;-71
2023/08/29 04:30:36;;;;;;;11.70;10.80;;;;;;;14.41;81.99;97291.56;5031064;28;20553;-71
2023/08/29 04:33:03;;;;;;;10.27;9.57;;;;;;;14.40;82.26;97287.16;5026056;28;20477;-74
2023/08/29 04:35:31;;;;;;;12.30;11.17;;;;;;;14.38;82.63;97283.84;5027794;28;20457;-71
2023/08/29 04:37:58;;;;;;;11.30;10.40;;;;;;;14.35;82.50;97285.16;5031614;28;20459;-71
2023/08/29 04:40:25;;;;;;;13.13;12.10;;;;;;;14.32;83.25;97293.00;5030603;28;20537;-71
2023/08/29 04:42:52;;;;;;;12.80;11.70;;;;;;;14.31;83.33;97292.16;5028844;28;21114;-71
2023/08/29 04:45:19;;;;;;;12.03;11.23;;;;;;;14.37;83.13;97298.53;5033679;28;20463;-72
2023/08/29 04:47:46;;;;;;;13.00;12.10;;;;;;;14.21;83.84;97297.44;5032131;28;20979;-72
2023/08/29 04:50:12;;;;;;;13.30;12.27;;;;;;;14.30;83.79;97292.41;5037871;28;20458;-72
2023/08/29 04:52:40;;;;;;;13.67;12.67;;;;;;;14.23;84.32;97297.19;5031451;28;20577;-72
2023/08/29 04:55:08;;;;;;;13.77;12.70;;;;;;;14.18;84.53;97303.38;5032029;28;20481;-71
2023/08/29 04:57:35;;;;;;;12.93;12.03;;;;;;;14.09;84.84;97293.94;5032659;28;20638;-71
2023/08/29 05:00:01;;;;;;;13.40;12.20;;;;;;;14.21;84.57;97296.63;5030275;28;21043;-70
2023/08/29 05:02:28;;;;;;;11.93;11.13;;;;;;;13.92;86.17;97293.06;5033131;28;20847;-76
2023/08/29 05:04:55;;;;;;;12.37;11.57;;;;;;;14.14;85.21;97283.16;5031736;28;20941;-70
2023/08/29 05:07:22;;;;;;;12.37;11.47;;;;;;;14.10;85.26;97288.25;5035650;28;20516;-70
2023/08/29 05:09:50;;;;;;;11.93;10.97;;;;;;;14.19;84.88;97288.69;5034086;28;20579;-70
2023/08/29 05:12:17;;;;;;;12.00;11.00;;;;;;;14.28;84.67;97284.53;5032611;28;20567;-71
2023/08/29 05:14:44;;;;;;;12.10;11.30;;;;;;;14.32;84.86;97291.09;5032453;28;20466;-71
2023/08/29 05:17:11;;;;;;;12.77;11.83;;;;;;;14.40;84.35;97292.59;5030480;28;20564;-71
2023/08/29 05:19:38;;;;;;;12.80;11.70;;;;;;;14.48;83.74;97289.53;5029270;28;20968;-71
2023/08/29 05:22:05;;;;;;;12.07;11.10;;;;;;;14.40;84.45;97293.44;5030922;28;20512;-74
2023/08/29 05:24:32;;;;;;;13.90;12.87;;;;;;;14.45;84.02;97290.00;5022958;28;20578;-70
2023/08/29 05:27:00;;;;;;;12.20;11.10;;;;;;;14.40;84.47;97292.59;5023046;28;20791;-75
2023/08/29 05:29:26;;;;;;;12.00;11.00;;;;;;;14.61;83.72;97302.84;5023823;28;20446;-73
2023/08/29 05:31:53;;;;;;;12.00;11.10;;;;;;;14.52;83.81;97285.25;5028260;28;20468;-76
2023/08/29 05:34:20;;;;;;;12.67;11.67;;;;;;;14.52;84.39;97290.69;5027246;28;20457;-73
2023/08/29 05:36:49;;;;;;;12.17;11.37;;;;;;;14.65;83.97;97294.97;5028339;28;20488;-73
2023/08/29 05:39:16;;;;;;;11.73;10.83;;;;;;;14.62;83.89;97295.50;5029532;28;20973;-73
2023/08/29 05:41:43;;;;;;;13.60;12.40;;;;;;;14.47;84.46;97287.88;5030643;28;20891;-72
2023/08/29 05:44:12;;;;;;;13.27;12.37;;;;;;;14.55;84.57;97292.91;5037407;28;20481;-73
2023/08/29 05:46:39;;;;;;;14.07;13.00;;;;;;;14.58;84.64;97294.34;5033402;28;20942;-74
2023/08/29 05:49:05;;;;;;;13.00;12.03;;;;;;;14.43;85.40;97300.31;5032799;28;20455;-76
2023/08/29 05:51:32;;;;;;;12.40;11.50;;;;;;;14.49;85.45;97307.50;5031161;28;20550;-71
2023/08/29 05:53:59;;;;;;;14.07;12.87;;;;;;;14.54;85.16;97301.34;5035999;28;20488;-70
2023/08/29 05:56:26;;;;;;;13.33;12.33;;;;;;;14.48;85.31;97294.97;5035282;28;20566;-70
2023/08/29 05:58:53;;;;;;;12.77;11.77;;;;;;;14.52;85.35;97301.56;5027785;28;20498;-71
2023/08/29 06:01:22;;;;;;;13.33;12.33;;;;;;;14.52;85.39;97303.47;5035244;28;20549;-71
2023/08/29 06:03:49;;;;;;;12.23;11.27;;;;;;;14.52;85.15;97306.19;5024151;28;20501;-72
2023/08/29 06:06:16;;;;;;;13.30;12.30;;;;;;;14.46;85.21;97302.56;5027679;28;20456;-72
2023/08/29 06:08:43;;;;;;;13.13;12.03;;;;;;;14.62;84.70;97306.38;5029693;28;20509;-71
2023/08/29 06:11:10;;;;;;;12.70;11.80;;;;;;;14.77;83.91;97310.19;5021324;28;20451;-72
2023/08/29 06:13:36;;;;;;;11.90;11.10;;;;;;;14.60;85.21;97309.34;5022928;28;20478;-72
2023/08/29 06:16:04;;;;;;;12.90;11.70;;;;;;;14.57;84.96;97318.00;5028796;28;20887;-71
2023/08/29 06:18:34;;;;;;;12.83;11.80;;;;;;;14.62;84.57;97323.53;5030948;28;20958;-71
2023/08/29 06:21:02;;;;;;;13.00;12.10;;;;;;;14.54;84.54;97331.28;5034684;28;20479;-71
2023/08/29 06:23:29;;;;;;;12.63;11.57;;;;;;;14.51;84.76;97332.59;5030671;28;20564;-71
2023/08/29 06:25:56;;;;;;;12.20;11.40;;;;;;;14.53;84.37;97327.75;5029328;28;20480;-71
2023/08/29 06:28:22;;;;;;;14.33;13.23;;;;;;;14.47;84.50;97328.72;5033212;28;20446;-71
2023/08/29 06:30:49;;;;;;;13.43;12.50;;;;;;;14.53;84.00;97329.63;5040405;28;20470;-71
2023/08/29 06:33:16;;;;;;;12.60;11.70;;;;;;;14.23;85.43;97336.13;5031101;28;20533;-70
2023/08/29 06:35:45;;;;;;;12.57;11.63;;;;;;;14.13;86.14;97335.94;5029506;28;20489;-71
2023/08/29 06:38:12;;;;;;;13.83;12.73;;;;;;;14.10;86.79;97342.69;5033541;28;20461;-71
2023/08/29 06:40:39;;;;;;;14.00;12.90;;;;;;;14.22;86.15;97336.38;5031641;28;20710;-70
2023/08/29 06:43:05;;;;;;;12.83;11.83;;;;;;;14.34;85.71;97348.03;5027996;28;20485;-70
2023/08/29 06:45:32;;;;;;;12.20;11.40;;;;;;;14.30;86.06;97344.13;5032137;28;20510;-71
2023/08/29 06:47:59;;;;;;;14.17;13.10;;;;;;;14.42;85.80;97344.94;5035153;28;20456;-73
2023/08/29 06:50:26;;;;;;;12.30;11.40;;;;;;;14.48;85.61;97354.88;5029185;28;20468;-71
2023/08/29 06:52:54;;;;;;;12.20;11.30;;;;;;;14.56;85.37;97362.66;5007545;28;22135;-71
2023/08/29 06:55:21;;;;;;;11.30;10.50;;;;;;;14.66;85.59;97356.53;5009611;28;20457;-71
2023/08/29 06:57:48;;;;;;;12.10;11.30;;;;;;;14.72;85.27;97361.84;5018275;28;21295;-72
2023/08/29 07:00:16;;;;;;;11.83;11.03;;;;;;;14.78;84.88;97360.88;5025286;28;20824;-72
2023/08/29 07:02:43;;;;;;;11.13;10.33;;;;;;;14.66;84.59;97356.53;5023788;28;20491;-71
2023/08/29 07:05:10;;;;;;;11.40;10.50;;;;;;;14.82;84.28;97369.38;5027183;28;20459;-71
2023/08/29 07:07:38;;;;;;;10.57;9.77;;;;;;;14.94;84.44;97361.97;5032492;28;20457;-72
2023/08/29 07:10:07;;;;;;;10.53;9.73;;;;;;;14.92;83.90;97360.56;5024852;28;20462;-71
2023/08/29 07:12:34;;;;;;;10.10;9.27;;;;;;;14.83;84.39;97356.59;5022453;28;20477;-71
2023/08/29 07:15:02;;;;;;;9.60;8.80;;;;;;;14.98;83.96;97360.38;5012855;28;20828;-71
2023/08/29 07:17:29;;;;;;;11.00;9.90;;;;;;;15.09;83.59;97373.13;5025042;28;20459;-72
2023/08/29 07:19:56;;;;;;;10.03;9.10;;;;;;;14.95;83.62;97373.66;5023111;28;20562;-72
2023/08/29 07:22:23;;;;;;;9.43;8.73;;;;;;;15.12;82.45;97372.63;5024239;28;20490;-71
2023/08/29 07:24:50;;;;;;;8.80;8.20;;;;;;;15.04;83.19;97374.91;5021296;28;20461;-71
2023/08/29 07:27:18;;;;;;;10.50;9.60;;;;;;;14.92;83.34;97371.47;5029457;28;20462;-71
2023/08/29 07:29:45;;;;;;;9.97;9.17;;;;;;;14.95;82.94;97373.66;5025545;28;20562;-71
2023/08/29 07:32:12;;;;;;;9.33;8.63;;;;;;;14.81;83.13;97380.53;5020470;28;20528;-71
2023/08/29 07:34:39;;;;;;;9.73;9.13;;;;;;;14.85;84.10;97381.69;5025342;28;20473;-71
2023/08/29 07:37:07;;;;;;;9.10;8.40;;;;;;;14.90;83.62;97385.34;5027448;28;20451;-70
2023/08/29 07:39:34;;;;;;;9.67;9.03;;;;;;;14.60;84.54;97380.16;5038381;28;20451;-71
2023/08/29 07:42:01;;;;;;;9.30;8.70;;;;;;;14.84;84.32;97385.47;5035245;28;22476;-71
2023/08/29 07:44:30;;;;;;;10.10;9.40;;;;;;;15.02;84.07;97387.97;5034817;28;20956;-71
2023/08/29 07:46:57;;;;;;;10.30;9.30;;;;;;;14.79;84.60;97395.22;5034491;28;20466;-71
2023/08/29 07:49:24;;;;;;;10.37;9.43;;;;;;;14.95;84.34;97387.28;5025544;28;20463;-72
2023/08/29 07:51:52;;;;;;;10.50;9.80;;;;;;;14.90;84.13;97396.22;5034037;28;20475;-72
2023/08/29 07:54:18;;;;;;;9.70;9.00;;;;;;;14.64;86.12;97403.09;5041682;28;21192;-72
2023/08/29 07:56:45;;;;;;;10.40;9.70;;;;;;;14.90;85.98;97409.03;5031968;28;20887;-72
2023/08/29 07:59:12;;;;;;;10.60;9.80;;;;;;;14.91;86.13;97399.78;5042875;28;20459;-72
2023/08/29 08:01:40;;;;;;;10.40;9.60;;;;;;;15.01;85.63;97405.38;5030543;28;21036;-72
2023/08/29 08:04:07;;;;;;;11.10;10.30;;;;;;;15.08;85.19;97406.06;5032293;28;20474;-72
2023/08/29 08:06:34;;;;;;;11.10;10.33;;;;;;;15.17;85.04;97412.78;5042314;28;20461;-71
2023/08/29 08:09:02;;;;;;;10.70;10.00;;;;;;;15.11;84.30;97405.56;5033352;28;20465;-72
2023/08/29 08:11:29;;;;;;;10.83;9.97;;;;;;;15.19;84.75;97405.19;5034349;28;20460;-72
2023/08/29 08:13:57;;;;;;;10.80;9.90;;;;;;;15.16;84.80;97411.13;5025595;28;20837;-72
2023/08/29 08:16:24;;;;;;;10.77;9.93;;;;;;;15.33;85.00;97403.75;5021906;28;20502;-72
2023/08/29 08:18:52;;;;;;;10.37;9.57;;;;;;;15.52;84.56;97404.34;5030899;28;20451;-72
2023/08/29 08:21:20;;;;;;;9.00;8.37;;;;;;;15.53;83.51;97406.00;5038219;28;20487;-72
2023/08/29 08:23:47;;;;;;;9.10;8.50;;;;;;;15.36;83.68;97411.44;5021648;28;20978;-79
2023/08/29 08:26:14;;;;;;;8.80;8.20;;;;;;;15.37;83.65;97402.19;5019195;28;20466;-74
2023/08/29 08:28:43;;;;;;;10.77;9.97;;;;;;;15.42;83.83;97417.81;5029788;28;20474;-74
2023/08/29 08:31:10;;;;;;;11.37;10.63;;;;;;;15.10;84.40;97417.56;5032421;28;20907;-76
2023/08/29 08:33:37;;;;;;;11.17;10.37;;;;;;;15.01;85.01;97421.75;5028972;28;20468;-75
2023/08/29 08:36:05;;;;;;;10.37;9.67;;;;;;;15.17;85.38;97407.31;5031113;28;20567;-77
2023/08/29 08:38:32;;;;;;;11.10;10.40;;;;;;;15.26;85.44;97416.75;5025929;28;20521;-75
2023/08/29 08:40:59;;;;;;;11.10;10.30;;;;;;;15.13;85.80;97423.34;5028799;28;20483;-73
2023/08/29 08:43:27;;;;;;;11.93;11.03;;;;;;;15.28;85.67;97425.47;5031001;28;20482;-76
2023/08/29 08:45:54;;;;;;;11.87;10.97;;;;;;;15.32;85.46;97423.91;5025010;28;20539;-74
2023/08/29 08:48:21;;;;;;;11.20;10.50;;;;;;;15.46;84.72;97421.69;5034201;28;20486;-75
2023/08/29 08:50:49;;;;;;;10.60;9.70;;;;;;;15.53;83.93;97427.00;5034464;28;20586;-74
2023/08/29 08:53:19;;;;;;;11.60;10.90;;;;;;;15.45;84.85;97423.59;5028906;28;20561;-74
2023/08/29 08:55:46;;;;;;;11.10;10.37;;;;;;;15.53;85.33;97427.00;5026571;28;20444;-74
2023/08/29 08:58:13;;;;;;;11.47;10.67;;;;;;;15.68;84.20;97430.78;5024023;28;20467;-75
2023/08/29 09:00:40;;;;;;;11.00;10.30;;;;;;;15.51;84.11;97426.41;5029188;28;20570;-75
2023/08/29 09:03:07;;;;;;;12.17;11.40;;;;;;;15.36;85.41;97427.81;5031310;28;20566;-75
2023/08/29 09:05:34;;;;;;;13.50;12.60;;;;;;;15.30;85.82;97433.41;5033858;28;20881;-75
2023/08/29 09:08:01;;;;;;;13.03;12.13;;;;;;;15.17;86.37;97439.22;5035723;28;20550;-75
2023/08/29 09:10:32;;;;;;;13.63;12.73;;;;;;;15.24;86.56;97432.53;5030406;28;20971;-75
2023/08/29 09:12:59;;;;;;;12.40;11.60;;;;;;;15.15;86.51;97420.38;5029221;28;20633;-74
2023/08/29 09:15:27;;;;;;;13.13;12.20;;;;;;;15.00;86.25;97417.38;5032194;28;21050;-76
2023/08/29 09:17:54;;;;;;;11.90;11.10;;;;;;;15.16;86.70;97423.91;5029383;28;20503;-83
2023/08/29 09:20:24;;;;;;;13.23;12.23;;;;;;;15.36;86.86;97425.06;5035739;28;20480;-74
2023/08/29 09:22:50;;;;;;;11.83;10.77;;;;;;;15.60;86.16;97424.94;5031358;28;20482;-74
2023/08/29 09:25:17;;;;;;;15.40;14.00;;;;;;;15.67;85.57;97428.31;5030951;28;20510;-75
2023/08/29 09:27:48;;;;;;;13.27;12.27;;;;;;;15.52;85.51;97430.78;5042682;28;21019;-75
2023/08/29 09:30:17;;;;;;;13.53;12.53;;;;;;;15.65;85.85;97427.75;5041593;28;20478;-75
2023/08/29 09:32:44;;;;;;;12.80;12.00;;;;;;;15.74;85.47;97434.44;5030259;28;20472;-78
2023/08/29 09:35:15;;;;;;;13.13;12.23;;;;;;;15.62;85.98;97436.41;5044020;28;20447;-76
2023/08/29 09:37:46;;;;;;;13.87;12.87;;;;;;;15.81;85.04;97437.81;5034651;28;20450;-78
2023/08/29 09:40:16;;;;;;;13.50;12.60;;;;;;;16.04;84.35;97429.41;5035181;28;21020;-75
2023/08/29 09:42:43;;;;;;;12.20;11.30;;;;;;;15.99;84.28;97440.25;5035908;28;20472;-74
2023/08/29 09:45:15;;;;;;;13.40;12.50;;;;;;;16.12;84.47;97442.63;5035959;28;20460;-76
2023/08/29 09:47:43;;;;;;;13.67;12.77;;;;;;;16.05;83.43;97441.16;5031769;28;20464;-75
2023/08/29 09:50:10;;;;;;;14.50;13.50;;;;;;;16.16;83.19;97442.97;5029999;28;20816;-74
2023/08/29 09:52:37;;;;;;;13.00;12.10;;;;;;;15.99;83.69;97442.97;5027846;28;20525;-74
2023/08/29 09:55:06;;;;;;;12.33;11.53;;;;;;;16.10;83.89;97436.59;5027099;28;20468;-74
2023/08/29 09:57:35;;;;;;;12.13;11.40;;;;;;;16.12;82.56;97437.19;5038169;28;20455;-74
2023/08/29 10:00:04;;;;;;;11.70;10.83;;;;;;;15.95;82.11;97436.38;5035380;28;20487;-74
2023/08/29 10:02:33;;;;;;;13.27;12.37;;;;;;;16.16;83.01;97442.13;5031187;28;20484;-74
2023/08/29 10:05:05;;;;;;;12.20;11.30;;;;;;;16.31;82.74;97434.13;5035642;28;20467;-74
2023/08/29 10:07:38;;;;;;;12.67;11.87;;;;;;;16.47;82.92;97427.78;5032464;28;20509;-74
2023/08/29 10:10:07;;;;;;;12.07;11.00;;;;;;;16.72;81.04;97447.22;5044977;28;20708;-74
2023/08/29 10:12:34;;;;;;;11.83;11.13;;;;;;;16.99;80.36;97427.28;5038089;28;20483;-73
2023/08/29 10:15:01;;;;;;;10.70;10.00;;;;;;;17.02;78.12;97429.50;5040723;28;20552;-72
2023/08/29 10:17:28;;;;;;;11.03;10.20;;;;;;;16.82;78.15;97434.78;5037575;28;20482;-77
2023/08/29 10:19:58;;;;;;;11.10;10.30;;;;;;;16.74;78.64;97436.06;5019590;28;20490;-73
2023/08/29 10:22:28;;;;;;;10.50;9.90;;;;;;;16.94;78.63;97432.69;5027509;28;20491;-74
2023/08/29 10:24:55;;;;;;;10.73;10.13;;;;;;;16.99;78.17;97436.31;5023908;28;20463;-74
2023/08/29 10:27:22;;;;;;;10.30;9.60;;;;;;;16.66;77.31;97398.25;5030883;28;21188;-77
2023/08/29 10:29:49;;;;;;;10.43;9.73;;;;;;;16.77;77.55;97435.53;5027993;28;20448;-77
2023/08/29 10:32:16;;;;;;;12.20;11.40;;;;;;;16.68;78.53;97440.63;5031862;28;20583;-75
2023/08/29 10:34:43;;;;;;;10.53;9.83;;;;;;;16.41;80.37;97442.47;5036618;28;21032;-79
2023/08/29 10:37:18;;;;;;;13.77;12.77;;;;;;;16.08;81.33;97440.66;5025538;28;20479;-81
2023/08/29 10:39:45;;;;;;;13.87;13.00;;;;;;;16.09;83.11;97439.56;5032437;28;20469;-80
2023/08/29 10:42:13;;;;;;;14.50;13.50;;;;;;;16.06;82.22;97440.91;5029522;28;20542;-79
2023/08/29 10:44:43;;;;;;;14.07;13.17;;;;;;;16.23;83.04;97442.78;5040339;28;20467;-79
2023/08/29 10:47:15;;;;;;;16.40;15.30;;;;;;;16.25;83.57;97435.97;5036171;28;20460;-78
2023/08/29 10:49:42;;;;;;;15.60;14.47;;;;;;;16.32;84.51;97436.59;5040231;28;20445;-78
2023/08/29 10:52:09;;;;;;;15.37;14.37;;;;;;;16.74;83.13;97425.94;5028860;28;20480;-78
2023/08/29 10:54:38;;;;;;;13.93;12.90;;;;;;;17.15;80.27;97422.81;5046344;28;20541;-78
2023/08/29 10:57:25;;;;;;;13.83;12.93;;;;;;;17.90;77.94;97421.75;5028828;28;20456;-78
2023/08/29 10:59:52;;;;;;;11.00;10.30;;;;;;;18.24;76.96;97420.31;5026716;28;21058;-78
2023/08/29 11:02:25;;;;;;;10.80;10.10;;;;;;;18.63;74.92;97412.56;5023521;28;20517;-78
2023/08/29 11:04:53;;;;;;;9.60;9.00;;;;;;;18.71;75.03;97409.31;5027807;28;21665;-78
2023/08/29 11:07:25;;;;;;;9.83;9.23;;;;;;;18.09;73.44;97404.63;5037324;28;20465;-77
2023/08/29 11:10:18;;;;;;;8.60;8.10;;;;;;;18.29;71.89;97406.66;5029186;28;20638;-78
2023/08/29 11:13:06;;;;;;;7.93;7.43;;;;;;;18.44;72.86;97403.16;5025087;28;20479;-77
2023/08/29 11:16:05;;;;;;;8.17;7.57;;;;;;;18.42;70.84;97400.69;5021958;28;21012;-78
2023/08/29 11:18:32;;;;;;;9.20;8.70;;;;;;;18.46;72.89;97409.19;5020296;28;20537;-78
2023/08/29 11:21:05;;;;;;;10.33;9.73;;;;;;;18.46;73.70;97403.72;5033540;28;20545;-78
2023/08/29 11:23:35;;;;;;;8.10;7.50;;;;;;;18.66;72.83;97401.06;5028701;28;20467;-78
2023/08/29 11:26:04;;;;;;;8.00;7.40;;;;;;;18.66;71.55;97401.06;5025325;28;20479;-77